• Join FlightAware (Why Join?)
  • Login
  • US Flag 
01:06PM EDT


 

Airport Tracker/Info


-or-


 

Live Flight TrackerFlight Track Log ✈ CPZ5750 ✈ 10-Jul-2013 ✈ KALB - KMSP

Flight Track Log - Related Links

Times and Time Zones

All times are in EDT time to prevent confusion due to time zone crossing. See the CPZ5750 flight status page for this flight to view local times or setup timezone preferences in your user account.

Time Position Orientation Groundspeed Altitude Reporting Facility
EDT Latitude Longitude Course Direction KTS MPH feet Rate Location/Type
07:46PM 42.7144 -73.8614 255° West 227 261 2,800  Level Boston Center
07:47PM 42.7947 -73.9539 320° Northwest 268 308 6,900 2,820 Climbing Boston Center
07:48PM 42.8350 -74.3431 283° West  Level FlightAware Approximate
07:48PM 42.8500 -74.0261 316° Northwest 278 320 10,100  Level Boston Center
07:49PM 42.8581 -74.4815 283° West  Level FlightAware Approximate
07:49PM 42.9175 -74.1072 319° Northwest 285 328 11,800  Level Boston Center
07:50PM 42.8915 -74.6095 281° West  Level FlightAware Approximate
07:50PM 42.9872 -74.1914 319° Northwest 322 371 14,400  Level Boston Center
07:51PM 43.0589 -74.2758 319° Northwest 336 387 16,500 1,800 Climbing Boston Center
07:52PM 43.1364 -74.3692 319° Northwest 354 407 18,000 1,620 Climbing Boston Center
07:53PM 43.2100 -74.4514 321° Northwest 371 427 19,800 2,100 Climbing Boston Center
07:54PM 43.2917 -74.5425 321° Northwest 377 434 22,200 2,340 Climbing Boston Center
07:55PM 43.3736 -74.6225 325° Northwest 370 426 24,500 2,280 Climbing Boston Center
07:56PM 43.4533 -74.7025 324° Northwest 365 420 26,800 1,920 Climbing Boston Center
07:57PM 43.5311 -74.7797 324° Northwest 353 406 28,400 960 Climbing Boston Center
07:58PM 43.5725 -74.8903 297° West 327 376 28,800 840 Climbing Boston Center
07:59PM 43.5961 -75.0461 282° West 332 382 30,300 1,440 Climbing Boston Center
08:00PM 43.6178 -75.1878 282° West 345 397 32,000 840 Climbing Boston Center
08:01PM 43.6394 -75.3236 282° West 351 404 32,000 60 Level Boston Center
08:02PM 43.6608 -75.4708 281° West 376 433 32,200 480 Climbing Boston Center
08:03PM 43.6817 -75.6242 281° West 392 451 33,000 900 Climbing Boston Center
08:04PM 43.7044 -75.7719 282° West 399 459 34,100 1,080 Climbing Boston Center
08:05PM 43.7250 -75.9194 281° West 399 459 35,200 900 Climbing Boston Center
08:06PM 43.7458 -76.0589 282° West 389 448 36,000 360 Climbing Boston Center
08:07PM 43.7661 -76.2039 281° West 384 442 36,000  Level Boston Center
08:08PM 43.7844 -76.3458 280° West 384 442 36,000  Level Boston Center
08:09PM 43.8064 -76.4942 282° West 389 448 36,000  Level Boston Center
08:10PM 43.8261 -76.6394 281° West 389 448 36,000  Level Boston Center
08:11PM 43.8333 -76.7667 275° West 380 437 36,000  Level Toronto Center
08:12PM 43.8500 -76.9000 280° West 380 437 36,000  Level Toronto Center
08:13PM 43.8667 -77.0500 279° West 380 437 36,000  Level Toronto Center
08:14PM 43.8833 -77.1833 280° West 380 437 36,000  Level Toronto Center
08:15PM 43.9000 -77.3167 280° West 380 437 36,000  Level Toronto Center
08:16PM 43.9333 -77.4833 286° West 380 437 36,000  Level Toronto Center
08:17PM 43.9500 -77.6167 280° West 380 437 36,000  Level Toronto Center
08:18PM 43.9667 -77.7500 280° West 380 437 36,000  Level Toronto Center
08:19PM 43.9833 -77.9167 278° West 380 437 36,000  Level Toronto Center
08:20PM 43.9833 -78.0500 270° West 380 437 36,000  Level Toronto Center
08:21PM 44.0167 -78.2000 287° West 380 437 36,000  Level Toronto Center
08:22PM 44.0167 -78.3333 270° West 380 437 36,000  Level Toronto Center
08:23PM 44.0500 -78.5000 286° West 380 437 36,000  Level Toronto Center
08:24PM 44.0667 -78.6333 280° West 380 437 36,000  Level Toronto Center
08:25PM 44.0833 -78.7667 280° West 380 437 36,000  Level Toronto Center
08:26PM 44.1000 -78.9167 279° West 380 437 36,000  Level Toronto Center
08:27PM 44.1167 -79.0833 278° West 380 437 36,000  Level Toronto Center
08:28PM 44.1333 -79.2167 280° West 390 449 36,000  Level Toronto Center
08:29PM 44.1500 -79.3833 278° West 390 449 36,000  Level Toronto Center
08:30PM 44.1667 -79.5167 280° West 380 437 36,000  Level Toronto Center
08:31PM 44.1833 -79.6500 280° West 380 437 36,000  Level Toronto Center
08:32PM 44.2000 -79.8000 279° West 380 437 36,000  Level Toronto Center
08:33PM 44.2167 -79.9333 280° West 370 426 36,000  Level Toronto Center
08:34PM 44.2333 -80.1000 278° West 370 426 36,000  Level Toronto Center
08:35PM 44.2333 -80.2167 270° West 370 426 36,000  Level Toronto Center
08:36PM 44.2500 -80.3833 278° West 370 426 36,000  Level Toronto Center
08:37PM 44.2667 -80.5167 280° West 370 426 36,000  Level Toronto Center
08:38PM 44.2833 -80.6500 280° West 360 414 36,000  Level Toronto Center
08:39PM 44.3000 -80.8000 279° West 370 426 36,000  Level Toronto Center
08:40PM 44.3000 -80.9333 270° West 370 426 36,000  Level Toronto Center
08:41PM 44.3167 -81.0833 279° West 360 414 36,000  Level Toronto Center
08:42PM 44.3333 -81.2167 280° West 360 414 36,000  Level Toronto Center
08:43PM 44.3500 -81.3500 280° West 360 414 36,000  Level Toronto Center
08:44PM 44.3667 -81.5000 279° West 370 426 36,000  Level Toronto Center
08:45PM 44.3667 -81.6167 270° West 360 414 36,000  Level Toronto Center
08:46PM 44.3833 -81.7833 278° West 360 414 36,000  Level Toronto Center
08:47PM 44.4000 -81.9000 281° West 360 414 36,000  Level Toronto Center
08:48PM 44.4000 -82.0667 270° West 360 414 36,000  Level Toronto Center
08:49PM 44.4167 -82.1833 281° West 360 414 36,000  Level Toronto Center
08:50PM 44.4333 -82.3333 279° West 360 414 36,000  Level Toronto Center
08:51PM 44.4497 -82.4289 284° West 361 415 36,000  Level Minneapolis Center
08:52PM 44.4631 -82.5700 278° West 364 419 36,000  Level Minneapolis Center
08:53PM 44.4742 -82.7119 276° West 366 421 36,000  Level Minneapolis Center
08:54PM 44.4850 -82.8539 276° West 367 422 36,000  Level Minneapolis Center
08:55PM 44.4961 -82.9992 276° West 373 429 36,000  Level Minneapolis Center
08:56PM 44.5083 -83.1442 277° West 375 432 36,000  Level Minneapolis Center
08:57PM 44.5217 -83.3217 276° West 381 438 36,000  Level Minneapolis Center
08:58PM 44.5319 -83.4714 276° West 384 442 36,000  Level Minneapolis Center
08:59PM 44.5439 -83.6200 276° West 385 443 36,000  Level Minneapolis Center
09:00PM 44.5528 -83.7692 275° West 385 443 36,000  Level Minneapolis Center
09:01PM 44.5653 -83.9217 277° West 390 449 36,000  Level Minneapolis Center
09:02PM 44.5753 -84.0739 275° West 393 452 36,000  Level Minneapolis Center
09:03PM 44.5886 -84.2567 276° West 393 452 36,000  Level Minneapolis Center
09:05PM 44.5983 -84.4100 275° West 395 455 36,000  Level Minneapolis Center
09:06PM 44.6086 -84.5633 275° West 394 453 36,000  Level Minneapolis Center
09:07PM 44.6186 -84.7178 275° West 399 459 36,000  Level Minneapolis Center
09:08PM 44.6281 -84.8722 275° West 397 457 36,000  Level Minneapolis Center
09:09PM 44.6400 -85.0594 275° West 401 461 36,000  Level Minneapolis Center
09:10PM 44.6492 -85.2161 275° West 402 463 36,000  Level Minneapolis Center
09:11PM 44.6578 -85.3719 274° West 401 461 36,000  Level Minneapolis Center
09:12PM 44.6658 -85.5269 274° West 399 459 36,000  Level Minneapolis Center
09:13PM 44.6639 -85.6828 269° West 400 460 36,000  Level Minneapolis Center
09:14PM 44.6586 -85.8367 267° West 399 459 36,000  Level Minneapolis Center
09:15PM 44.6536 -85.9914 267° West 398 458 36,000  Level Minneapolis Center
09:16PM 44.6461 -86.1761 267° West 398 458 36,000  Level Minneapolis Center
09:17PM 44.6403 -86.3408 267° West 396 456 36,000  Level Minneapolis Center
09:18PM 44.6333 -86.4967 266° West 397 457 36,000  Level Minneapolis Center
09:19PM 44.6278 -86.6525 267° West 399 459 36,000  Level Minneapolis Center
09:20PM 44.6214 -86.8067 267° West 397 457 36,000  Level Minneapolis Center
09:21PM 44.6156 -86.9606 267° West 397 457 36,000  Level Minneapolis Center
09:22PM 44.6083 -87.1161 266° West 398 458 36,000  Level Minneapolis Center
09:23PM 44.6017 -87.2706 267° West 398 458 36,000  Level Minneapolis Center
09:24PM 44.5931 -87.4564 266° West 398 458 36,000  Level Minneapolis Center
09:25PM 44.5850 -87.6100 266° West 397 457 36,000  Level Minneapolis Center
09:26PM 44.5775 -87.7631 266° West 395 455 36,000  Level Minneapolis Center
09:27PM 44.5697 -87.9194 266° West 393 452 36,000  Level Minneapolis Center
09:28PM 44.5617 -88.0717 266° West 394 453 36,000  Level Minneapolis Center
09:29PM 44.5606 -88.2494 270° West 394 453 36,000  Level Minneapolis Center
09:30PM 44.5794 -88.3981 280° West 387 445 36,000  Level Minneapolis Center
09:31PM 44.5975 -88.5497 280° West 393 452 36,000  Level Minneapolis Center
09:32PM 44.6142 -88.7019 279° West 395 455 36,000  Level Minneapolis Center
09:33PM 44.6281 -88.8275 279° West 394 453 36,000  Level Minneapolis Center
09:35PM 44.6508 -89.0272 279° West 390 449 36,000  Level Minneapolis Center
09:36PM 44.6669 -89.1794 279° West 392 451 36,000  Level Minneapolis Center
09:37PM 44.6836 -89.3314 279° West 395 455 36,000  Level Minneapolis Center
09:38PM 44.6994 -89.4833 278° West 395 455 36,000 -540 Level Minneapolis Center
09:39PM 44.7158 -89.6358 279° West 396 456 35,000 -1,080 Descending Minneapolis Center
09:40PM 44.7358 -89.8167 279° West 402 463 33,800 -1,260 Descending Minneapolis Center
09:41PM 44.7539 -89.9717 279° West 403 464 32,400 -900 Descending Minneapolis Center
09:42PM 44.7761 -90.1256 282° West 402 463 32,000 -240 Descending Minneapolis Center
09:43PM 44.7969 -90.2828 281° West 408 470 32,000  Level Minneapolis Center
09:44PM 44.8186 -90.4408 281° West 410 472 32,000 -780 Level Minneapolis Center
09:45PM 44.8403 -90.6017 281° West 408 470 30,400 -1,680 Descending Minneapolis Center
09:46PM 44.8597 -90.7608 280° West 410 472 28,600 -2,040 Descending Minneapolis Center
09:47PM 44.8858 -90.9511 281° West 415 478 26,300 -2,040 Descending Minneapolis Center
09:48PM 44.9042 -91.1058 280° West 406 467 24,500 -1,740 Descending Minneapolis Center
09:49PM 44.9242 -91.2586 281° West 401 461 22,800 -1,680 Descending Minneapolis Center
09:50PM 44.9411 -91.4069 279° West 392 451 21,100 -1,680 Descending Minneapolis Center
09:51PM 44.9589 -91.5514 280° West 380 437 19,400 -1,680 Descending Minneapolis Center
09:52PM 44.9786 -91.6928 281° West 373 429 17,700 -1,740 Descending Minneapolis Center
09:53PM 44.9986 -91.8611 280° West 367 422 15,900 -1,500 Descending Minneapolis Center
09:54PM 45.0119 -91.9708 280° West 358 412 14,700 -1,560 Descending Minneapolis Center
09:55PM 45.0306 -92.1347 279° West 354 407 12,800 -1,740 Descending Minneapolis Center
09:56PM 45.0469 -92.2703 280° West 353 406 11,200 -1,020 Descending Minneapolis Center
09:57PM 45.0306 -92.4061 260° West 353 406 10,700 -720 Descending Minneapolis Center
09:58PM 44.9828 -92.5083 237° Southwest 317 365 9,800 -1,320 Descending Minneapolis Center
09:59PM 44.9278 -92.5933 228° Southwest 296 341 8,100 -1,260 Descending Minneapolis Center
10:00PM 44.8658 -92.6756 223° Southwest 254 292 7,200 -660 Descending Minneapolis Center
10:01PM 44.8050 -92.7194 207° Southwest 245 282 6,800 -780 Descending Minneapolis Center
10:02PM 44.7447 -92.7650 208° Southwest 245 282 5,700 -900 Descending Minneapolis Center
10:03PM 44.7261 -92.8389 251° West 214 246 5,000 -360 Descending Minneapolis Center
10:04PM 44.7547 -92.9033 302° West 195 224 5,000 -300 Level Minneapolis Center
10:05PM 44.7825 -92.9678 301° West 194 223 4,500 -540 Descending Minneapolis Center